Time;durP1;ratioP1;P1;durP2;ratioP2;P2;SDS_P1;SDS_P2;PMS_P1;PMS_P2;Temp;Humidity;BMP_temperature;BMP_pressure;BME280_temperature;BME280_humidity;BME280_pressure;Samples;Min_cycle;Max_cycle;Signal;HPM_P1;HPM_P2
2023/03/13 00:01:08;;;;;;;;;;;;;;;6.74;59.46;100432.22;4840596;29;19920;-28
2023/03/13 00:03:34;;;;;;;;;;;;;;;6.57;58.25;100434.25;4841018;29;19920;-25
2023/03/13 00:05:59;;;;;;;;;;;;;;;6.69;57.05;100435.44;4840537;29;19931;-25
2023/03/13 00:08:27;;;;;;;;;;;;;;;6.66;57.55;100429.66;4841044;29;20325;-25
2023/03/13 00:10:53;;;;;;;;;;;;;;;7.23;55.09;100439.53;4840572;29;19943;-29
2023/03/13 00:13:18;;;;;;;;;;;;;;;7.38;54.91;100440.31;4840832;29;20389;-25
2023/03/13 00:15:43;;;;;;;;;;;;;;;7.09;55.60;100429.78;4840703;29;19924;-25
2023/03/13 00:18:09;;;;;;;;;;;;;;;7.23;56.03;100440.38;4840395;29;19928;-26
2023/03/13 00:20:34;;;;;;;;;;;;;;;6.89;57.26;100440.19;4840360;29;20347;-25
2023/03/13 00:22:59;;;;;;;;;;;;;;;7.03;57.85;100441.97;4840495;29;19924;-27
2023/03/13 00:25:24;;;;;;;;;;;;;;;7.07;57.43;100437.09;4840743;29;19963;-25
2023/03/13 00:27:50;;;;;;;;;;;;;;;7.03;56.88;100452.59;4840405;29;19930;-25
2023/03/13 00:30:15;;;;;;;;;;;;;;;6.90;57.32;100439.16;4840569;29;20400;-25
2023/03/13 00:32:41;;;;;;;;;;;;;;;6.91;57.17;100448.75;4840400;29;20405;-26
2023/03/13 00:35:07;;;;;;;;;;;;;;;6.80;57.52;100442.94;4840129;29;19984;-25
2023/03/13 00:37:32;;;;;;;;;;;;;;;6.59;58.28;100446.31;4840802;29;19931;-25
2023/03/13 00:39:57;;;;;;;;;;;;;;;6.40;58.90;100437.09;4840441;29;19930;-28
2023/03/13 00:42:22;;;;;;;;;;;;;;;6.46;59.18;100440.84;4840367;29;19932;-25
2023/03/13 00:44:48;;;;;;;;;;;;;;;6.44;59.17;100441.00;4840131;29;19931;-26
2023/03/13 00:47:13;;;;;;;;;;;;;;;6.23;59.90;100446.19;4840295;29;20472;-25
2023/03/13 00:49:38;;;;;;;;;;;;;;;6.47;60.36;100442.47;4839819;29;19981;-25
2023/03/13 00:52:03;;;;;;;;;;;;;;;6.64;60.60;100437.81;4840264;29;20019;-26
2023/03/13 00:54:29;;;;;;;;;;;;;;;6.00;61.63;100435.66;4838714;29;19973;-26
2023/03/13 00:56:54;;;;;;;;;;;;;;;5.79;62.78;100433.69;4840005;29;19979;-27
2023/03/13 00:59:19;;;;;;;;;;;;;;;5.58;64.49;100443.09;4839902;29;19921;-26
2023/03/13 01:01:44;;;;;;;;;;;;;;;5.47;65.33;100442.69;4840030;29;19921;-25
2023/03/13 01:04:11;;;;;;;;;;;;;;;5.51;64.60;100443.97;4839644;29;19920;-25
2023/03/13 01:06:42;;;;;;;;;;;;;;;5.63;65.58;100440.72;4840203;29;19924;-25
2023/03/13 01:09:08;;;;;;;;;;;;;;;5.91;64.07;100447.31;4838533;29;19951;-25
2023/03/13 01:11:36;;;;;;;;;;;;;;;5.88;63.32;100443.19;4838514;29;19989;-26
2023/03/13 01:14:02;;;;;;;;;;;;;;;6.28;62.85;100445.69;4839645;29;20035;-25
2023/03/13 01:16:29;;;;;;;;;;;;;;;6.27;62.33;100436.88;4838239;29;19932;-27
2023/03/13 01:18:55;;;;;;;;;;;;;;;6.30;62.47;100444.47;4839054;29;19980;-25
2023/03/13 01:21:22;;;;;;;;;;;;;;;6.21;62.13;100448.19;4838323;29;19963;-25
2023/03/13 01:23:48;;;;;;;;;;;;;;;6.03;62.20;100446.72;4838042;29;20353;-26
2023/03/13 01:26:13;;;;;;;;;;;;;;;5.72;63.03;100443.31;4839553;29;19924;-26
2023/03/13 01:28:39;;;;;;;;;;;;;;;5.00;66.17;100450.56;4839456;29;19924;-25
2023/03/13 01:31:11;;;;;;;;;;;;;;;4.92;67.21;100441.84;4839192;29;19924;-27
2023/03/13 01:33:37;;;;;;;;;;;;;;;5.37;65.48;100443.75;4838432;29;19932;-25
2023/03/13 01:36:03;;;;;;;;;;;;;;;5.76;63.80;100440.16;4839265;29;19920;-25
2023/03/13 01:38:28;;;;;;;;;;;;;;;5.85;63.87;100446.19;4839310;29;20393;-25
2023/03/13 01:40:53;;;;;;;;;;;;;;;5.37;64.46;100462.28;4839412;29;19920;-25
2023/03/13 01:43:19;;;;;;;;;;;;;;;5.19;65.68;100454.59;4839045;29;19920;-25
2023/03/13 01:45:50;;;;;;;;;;;;;;;5.44;64.75;100465.03;4838850;29;20407;-27
2023/03/13 01:48:15;;;;;;;;;;;;;;;5.78;63.56;100463.78;4839165;29;19931;-27
2023/03/13 01:50:41;;;;;;;;;;;;;;;5.92;62.88;100468.28;4838193;29;19921;-25
2023/03/13 01:53:06;;;;;;;;;;;;;;;5.42;64.51;100472.31;4838795;29;19920;-25
2023/03/13 01:55:32;;;;;;;;;;;;;;;5.71;64.16;100484.03;4839044;29;19924;-26
2023/03/13 01:57:58;;;;;;;;;;;;;;;5.83;64.37;100482.59;4839011;29;19927;-25
2023/03/13 02:00:25;;;;;;;;;;;;;;;5.46;64.75;100486.84;4838586;29;19928;-29
2023/03/13 02:02:54;;;;;;;;;;;;;;;5.14;65.74;100493.94;4837814;29;19924;-26
2023/03/13 02:05:21;;;;;;;;;;;;;;;4.88;66.30;100499.50;4838921;29;19928;-24
2023/03/13 02:07:53;;;;;;;;;;;;;;;5.17;66.13;100498.91;4837622;29;19920;-25
2023/03/13 02:10:20;;;;;;;;;;;;;;;5.63;64.30;100509.53;4838491;29;20024;-25
2023/03/13 02:12:47;;;;;;;;;;;;;;;5.33;65.50;100510.38;4836961;29;19925;-25
2023/03/13 02:15:14;;;;;;;;;;;;;;;5.18;64.73;100516.41;4838492;29;19921;-25
2023/03/13 02:17:40;;;;;;;;;;;;;;;5.62;63.97;100517.66;4838455;29;20019;-25
2023/03/13 02:20:06;;;;;;;;;;;;;;;5.63;63.78;100524.59;4838776;29;19963;-25
2023/03/13 02:22:34;;;;;;;;;;;;;;;5.77;62.26;100526.47;4838660;29;19924;-25
2023/03/13 02:25:22;;;;;;;;;;;;;;;5.73;61.64;100521.72;4838465;29;19928;-26
2023/03/13 02:27:49;;;;;;;;;;;;;;;5.98;61.26;100533.78;4833042;29;19920;-26
2023/03/13 02:30:15;;;;;;;;;;;;;;;6.09;61.38;100534.38;4838551;29;19928;-25
2023/03/13 02:32:41;;;;;;;;;;;;;;;6.12;60.54;100534.84;4838602;29;19925;-25
2023/03/13 02:35:09;;;;;;;;;;;;;;;5.64;62.20;100540.28;4837030;29;19925;-25
2023/03/13 02:37:34;;;;;;;;;;;;;;;5.15;63.37;100543.19;4838398;29;19992;-25
2023/03/13 02:40:02;;;;;;;;;;;;;;;5.09;64.64;100533.31;4838378;29;19967;-26
2023/03/13 02:42:28;;;;;;;;;;;;;;;4.80;66.89;100529.44;4837216;29;19944;-26
2023/03/13 02:44:53;;;;;;;;;;;;;;;5.19;66.58;100544.50;4838342;29;20374;-28
2023/03/13 02:47:20;;;;;;;;;;;;;;;5.30;65.79;100542.47;4838416;29;19981;-26
2023/03/13 02:49:45;;;;;;;;;;;;;;;5.63;63.67;100557.16;4838293;29;20309;-26
2023/03/13 02:52:19;;;;;;;;;;;;;;;5.72;63.24;100559.75;4838348;29;19927;-24
2023/03/13 02:54:46;;;;;;;;;;;;;;;5.71;63.47;100558.13;4837068;29;20455;-25
2023/03/13 02:57:12;;;;;;;;;;;;;;;5.54;64.26;100558.22;4838136;29;19924;-25
2023/03/13 02:59:37;;;;;;;;;;;;;;;5.40;64.53;100566.88;4838482;29;19940;-26
2023/03/13 03:02:03;;;;;;;;;;;;;;;5.45;64.92;100567.19;4838328;29;19924;-26
2023/03/13 03:04:28;;;;;;;;;;;;;;;5.12;66.53;100572.59;4838218;29;19924;-28
2023/03/13 03:06:54;;;;;;;;;;;;;;;5.16;67.16;100575.75;4836590;29;19963;-29
2023/03/13 03:09:19;;;;;;;;;;;;;;;5.23;67.77;100582.81;4838409;29;20316;-26
2023/03/13 03:11:45;;;;;;;;;;;;;;;5.12;66.78;100585.81;4838341;29;19980;-25
2023/03/13 03:14:11;;;;;;;;;;;;;;;5.40;65.47;100582.75;4838100;29;20446;-27
2023/03/13 03:16:36;;;;;;;;;;;;;;;5.52;65.95;100585.84;4838362;29;19925;-25
2023/03/13 03:19:02;;;;;;;;;;;;;;;5.50;64.46;100580.72;4837382;29;19929;-25
2023/03/13 03:21:27;;;;;;;;;;;;;;;5.53;64.00;100587.47;4838148;29;20329;-25
2023/03/13 03:23:52;;;;;;;;;;;;;;;5.46;63.70;100592.66;4837971;29;19924;-25
2023/03/13 03:26:18;;;;;;;;;;;;;;;5.27;64.58;100590.41;4840620;29;19924;-25
2023/03/13 03:28:43;;;;;;;;;;;;;;;5.21;64.07;100595.38;4841659;29;19964;-26
2023/03/13 03:31:10;;;;;;;;;;;;;;;5.11;64.02;100600.06;4841511;29;19921;-25
2023/03/13 03:33:35;;;;;;;;;;;;;;;4.95;64.19;100602.75;4841481;29;20724;-25
2023/03/13 03:36:02;;;;;;;;;;;;;;;4.95;64.52;100606.19;4841659;29;19928;-25
2023/03/13 03:38:27;;;;;;;;;;;;;;;5.01;64.30;100610.00;4841467;29;20467;-26
2023/03/13 03:40:52;;;;;;;;;;;;;;;5.13;64.04;100624.50;4840982;29;19920;-30
2023/03/13 03:43:18;;;;;;;;;;;;;;;4.92;65.10;100632.13;4841448;29;19935;-25
2023/03/13 03:45:43;;;;;;;;;;;;;;;5.02;65.49;100627.50;4841350;29;19921;-25
2023/03/13 03:48:08;;;;;;;;;;;;;;;5.00;65.47;100634.75;4841222;29;19974;-25
2023/03/13 03:50:33;;;;;;;;;;;;;;;4.95;65.52;100645.03;4841200;29;19924;-25
2023/03/13 03:52:59;;;;;;;;;;;;;;;5.05;65.34;100637.75;4840733;29;20053;-25
2023/03/13 03:55:24;;;;;;;;;;;;;;;5.07;65.76;100645.47;4841398;29;19932;-24
2023/03/13 03:57:49;;;;;;;;;;;;;;;5.05;65.02;100653.59;4841260;29;20586;-27
2023/03/13 04:00:15;;;;;;;;;;;;;;;4.64;67.11;100656.28;4841186;29;19931;-25
2023/03/13 04:02:40;;;;;;;;;;;;;;;5.04;65.03;100659.88;4840901;29;19921;-27
2023/03/13 04:05:05;;;;;;;;;;;;;;;5.24;64.37;100657.69;4840710;29;19921;-25
2023/03/13 04:07:31;;;;;;;;;;;;;;;5.08;64.01;100671.75;4841084;29;19924;-25
2023/03/13 04:09:56;;;;;;;;;;;;;;;5.42;63.17;100670.69;4841012;29;20312;-25
2023/03/13 04:12:22;;;;;;;;;;;;;;;5.31;63.88;100657.81;4840938;29;19921;-25
2023/03/13 04:14:47;;;;;;;;;;;;;;;5.12;63.73;100670.44;4840816;29;19936;-25
2023/03/13 04:17:13;;;;;;;;;;;;;;;5.43;62.94;100667.03;4840504;29;20397;-24
2023/03/13 04:19:39;;;;;;;;;;;;;;;5.24;63.13;100673.56;4839390;29;19928;-25
2023/03/13 04:22:04;;;;;;;;;;;;;;;5.16;63.34;100686.78;4840481;29;19924;-26
2023/03/13 04:24:29;;;;;;;;;;;;;;;5.06;63.56;100686.97;4840913;29;19924;-26
2023/03/13 04:26:55;;;;;;;;;;;;;;;5.00;63.34;100687.63;4840365;29;19947;-25
2023/03/13 04:29:20;;;;;;;;;;;;;;;5.08;63.61;100690.25;4840763;29;20449;-25
2023/03/13 04:31:45;;;;;;;;;;;;;;;5.05;62.98;100695.91;4840648;29;19920;-25
2023/03/13 04:34:10;;;;;;;;;;;;;;;4.87;64.25;100692.59;4840563;29;19921;-25
2023/03/13 04:36:36;;;;;;;;;;;;;;;4.80;64.51;100693.28;4839841;29;19929;-25
2023/03/13 04:39:02;;;;;;;;;;;;;;;4.84;64.07;100691.09;4840439;29;19925;-25
2023/03/13 04:41:27;;;;;;;;;;;;;;;4.67;64.42;100706.13;4840605;29;19920;-27
2023/03/13 04:43:52;;;;;;;;;;;;;;;4.86;64.04;100704.16;4840458;29;19988;-27
2023/03/13 04:46:17;;;;;;;;;;;;;;;4.99;63.11;100712.44;4840670;29;19986;-25
2023/03/13 04:48:43;;;;;;;;;;;;;;;4.82;63.34;100707.16;4840149;29;19977;-24
2023/03/13 04:51:08;;;;;;;;;;;;;;;4.73;64.12;100718.69;4839819;29;20468;-29
2023/03/13 04:53:33;;;;;;;;;;;;;;;4.75;63.75;100724.63;4840140;29;19932;-25
2023/03/13 04:55:59;;;;;;;;;;;;;;;4.47;64.62;100720.66;4840208;29;19932;-25
2023/03/13 04:58:24;;;;;;;;;;;;;;;4.32;64.48;100726.56;4840356;29;19932;-25
2023/03/13 05:00:49;;;;;;;;;;;;;;;4.47;64.16;100732.03;4840146;29;19920;-27
2023/03/13 05:03:14;;;;;;;;;;;;;;;4.45;63.15;100725.25;4839799;29;19959;-25
2023/03/13 05:05:40;;;;;;;;;;;;;;;4.62;63.08;100737.53;4839747;29;20337;-25
2023/03/13 05:08:07;;;;;;;;;;;;;;;4.20;63.80;100730.50;4839799;29;20301;-26
2023/03/13 05:10:32;;;;;;;;;;;;;;;4.22;63.96;100731.97;4838609;29;19951;-25
2023/03/13 05:12:58;;;;;;;;;;;;;;;4.33;62.75;100744.06;4839871;29;20385;-26
2023/03/13 05:15:23;;;;;;;;;;;;;;;4.48;62.72;100738.16;4839586;29;19920;-25
2023/03/13 05:17:48;;;;;;;;;;;;;;;4.53;61.74;100749.88;4839499;29;19933;-26
2023/03/13 05:20:13;;;;;;;;;;;;;;;4.77;60.37;100758.84;4839498;29;19920;-26
2023/03/13 05:22:39;;;;;;;;;;;;;;;4.77;60.76;100750.91;4839769;29;19996;-25
2023/03/13 05:25:04;;;;;;;;;;;;;;;4.71;59.13;100762.13;4839574;29;19928;-25
2023/03/13 05:27:30;;;;;;;;;;;;;;;4.35;59.09;100760.59;4839346;29;19924;-25
2023/03/13 05:29:55;;;;;;;;;;;;;;;4.52;58.41;100752.69;4839690;29;20015;-25
2023/03/13 05:32:20;;;;;;;;;;;;;;;4.40;58.12;100758.28;4839271;29;20470;-25
2023/03/13 05:34:45;;;;;;;;;;;;;;;4.34;58.18;100761.56;4838055;29;20366;-25
2023/03/13 05:37:11;;;;;;;;;;;;;;;4.18;57.43;100766.78;4838843;29;19935;-25
2023/03/13 05:39:36;;;;;;;;;;;;;;;4.18;58.30;100764.16;4839406;29;20015;-25
2023/03/13 05:42:01;;;;;;;;;;;;;;;4.55;57.28;100763.75;4839386;29;19924;-24
2023/03/13 05:44:27;;;;;;;;;;;;;;;4.75;56.19;100772.19;4839101;29;20370;-25
2023/03/13 05:46:52;;;;;;;;;;;;;;;4.82;56.50;100770.56;4839293;29;20309;-25
2023/03/13 05:49:17;;;;;;;;;;;;;;;4.72;55.85;100777.81;4838121;29;20023;-26
2023/03/13 05:51:42;;;;;;;;;;;;;;;4.42;56.30;100782.72;4839028;29;19985;-26
2023/03/13 05:54:08;;;;;;;;;;;;;;;4.51;56.38;100786.19;4839370;29;19920;-25
2023/03/13 05:56:33;;;;;;;;;;;;;;;4.50;56.21;100781.09;4839242;29;20478;-25
2023/03/13 05:58:58;;;;;;;;;;;;;;;4.59;55.98;100785.38;4838746;29;20007;-27
2023/03/13 06:01:24;;;;;;;;;;;;;;;4.20;55.60;100783.28;4839097;29;20025;-25
2023/03/13 06:03:49;;;;;;;;;;;;;;;4.37;57.26;100784.16;4838507;29;20387;-27
2023/03/13 06:06:14;;;;;;;;;;;;;;;4.75;56.30;100784.59;4844335;29;21048;-28
2023/03/13 06:08:39;;;;;;;;;;;;;;;4.78;56.58;100794.81;4856468;29;19924;-26
2023/03/13 06:11:05;;;;;;;;;;;;;;;4.88;56.00;100795.50;4854862;29;19930;-26
2023/03/13 06:13:30;;;;;;;;;;;;;;;5.04;55.88;100797.34;4856819;29;20354;-28
2023/03/13 06:15:56;;;;;;;;;;;;;;;5.13;56.23;100796.34;4855684;29;19935;-26
2023/03/13 06:18:22;;;;;;;;;;;;;;;5.10;55.85;100803.78;4855815;29;20506;-26
2023/03/13 06:20:48;;;;;;;;;;;;;;;5.00;56.05;100798.66;4855867;29;19924;-27
2023/03/13 06:23:14;;;;;;;;;;;;;;;5.15;56.66;100807.59;4856041;29;19932;-26
2023/03/13 06:25:39;;;;;;;;;;;;;;;5.55;57.52;100803.25;4856110;29;19924;-26
2023/03/13 06:28:04;;;;;;;;;;;;;;;5.71;55.63;100806.88;4848652;29;19971;-26
2023/03/13 06:30:30;;;;;;;;;;;;;;;5.85;54.90;100808.84;4856085;29;19928;-26
2023/03/13 06:32:56;;;;;;;;;;;;;;;6.01;54.31;100816.75;4855674;29;20320;-26
2023/03/13 06:35:21;;;;;;;;;;;;;;;5.99;53.90;100815.28;4855880;29;20388;-26
2023/03/13 06:37:47;;;;;;;;;;;;;;;6.13;53.20;100817.22;4839374;29;19984;-26
2023/03/13 06:40:12;;;;;;;;;;;;;;;6.16;53.43;100826.63;4857650;29;19927;-26
2023/03/13 06:42:39;;;;;;;;;;;;;;;6.22;52.15;100818.00;4860985;29;20305;-27
2023/03/13 06:45:05;;;;;;;;;;;;;;;5.56;52.79;100827.91;4838529;29;20357;-26
2023/03/13 06:47:31;;;;;;;;;;;;;;;5.88;52.76;100818.25;4856654;29;20078;-26
2023/03/13 06:49:56;;;;;;;;;;;;;;;6.03;53.12;100825.34;4855500;29;19988;-26
2023/03/13 06:52:22;;;;;;;;;;;;;;;6.31;52.26;100824.91;4847419;29;19924;-27
2023/03/13 06:54:47;;;;;;;;;;;;;;;6.11;52.24;100826.31;4855770;29;19967;-26
2023/03/13 06:57:12;;;;;;;;;;;;;;;6.22;52.33;100823.31;4839329;29;19971;-28
2023/03/13 06:59:38;;;;;;;;;;;;;;;6.72;52.05;100824.72;4857269;29;19924;-26
2023/03/13 07:02:03;;;;;;;;;;;;;;;6.97;50.84;100829.88;4859177;29;19932;-26
2023/03/13 07:04:28;;;;;;;;;;;;;;;6.74;50.69;100825.38;4859422;29;19958;-28
2023/03/13 07:06:53;;;;;;;;;;;;;;;7.04;50.28;100836.91;4858199;29;19963;-26
2023/03/13 07:09:19;;;;;;;;;;;;;;;7.26;49.09;100828.31;4859553;29;20361;-26
2023/03/13 07:11:44;;;;;;;;;;;;;;;7.39;49.15;100825.88;4859570;29;20019;-26
2023/03/13 07:14:09;;;;;;;;;;;;;;;7.65;49.25;100834.25;4859711;29;19924;-26
2023/03/13 07:16:35;;;;;;;;;;;;;;;7.74;48.90;100831.53;4859170;29;19934;-26
2023/03/13 07:19:00;;;;;;;;;;;;;;;7.75;47.51;100833.19;4859049;29;19933;-26
2023/03/13 07:21:25;;;;;;;;;;;;;;;7.61;48.66;100827.66;4858533;29;20010;-28
2023/03/13 07:23:51;;;;;;;;;;;;;;;7.65;48.70;100831.59;4842369;29;20294;-26
2023/03/13 07:26:16;;;;;;;;;;;;;;;7.91;47.58;100826.88;4858307;29;19928;-26
2023/03/13 07:28:42;;;;;;;;;;;;;;;7.85;47.06;100823.13;4859305;29;19920;-26
2023/03/13 07:31:10;;;;;;;;;;;;;;;7.91;47.88;100817.09;4859270;29;19920;-26
2023/03/13 07:33:35;;;;;;;;;;;;;;;8.10;47.33;100821.00;4859319;29;20001;-29
2023/03/13 07:36:00;;;;;;;;;;;;;;;8.31;46.65;100822.09;4858684;29;19932;-26
2023/03/13 07:38:26;;;;;;;;;;;;;;;8.49;45.06;100819.06;4859482;29;20016;-26
2023/03/13 07:40:55;;;;;;;;;;;;;;;8.84;44.14;100823.56;4858878;29;19925;-26
2023/03/13 07:43:21;;;;;;;;;;;;;;;9.03;43.87;100821.28;4859216;29;19920;-27
2023/03/13 07:46:05;;;;;;;;;;;;;;;9.24;42.73;100817.81;4859172;29;19920;-28
2023/03/13 07:48:31;;;;;;;;;;;;;;;9.16;43.07;100821.41;4842898;29;19959;-25
2023/03/13 07:50:57;;;;;;;;;;;;;;;9.30;42.19;100824.22;4859184;29;19924;-26
2023/03/13 07:53:23;;;;;;;;;;;;;;;9.36;42.59;100824.25;4859181;29;19980;-25
2023/03/13 07:55:52;;;;;;;;;;;;;;;9.60;42.87;100820.34;4842525;29;19924;-25
2023/03/13 07:58:17;;;;;;;;;;;;;;;9.89;43.06;100825.63;4859129;29;19949;-26
2023/03/13 08:00:42;;;;;;;;;;;;;;;10.03;40.77;100833.53;4858942;29;19920;-27
2023/03/13 08:03:08;;;;;;;;;;;;;;;10.14;40.69;100828.69;4858929;29;20459;-25
2023/03/13 08:05:33;;;;;;;;;;;;;;;10.05;40.54;100826.16;4859072;29;19920;-28
2023/03/13 08:07:59;;;;;;;;;;;;;;;9.98;42.00;100822.63;4858826;29;20464;-26
2023/03/13 08:10:24;;;;;;;;;;;;;;;10.22;41.50;100828.50;4858699;29;19999;-26
2023/03/13 08:12:49;;;;;;;;;;;;;;;10.44;40.41;100814.06;4858684;29;20412;-26
2023/03/13 08:15:14;;;;;;;;;;;;;;;10.55;39.57;100822.53;4858742;29;19916;-28
2023/03/13 08:17:40;;;;;;;;;;;;;;;10.58;39.71;100816.78;4858274;29;20373;-26
2023/03/13 08:20:06;;;;;;;;;;;;;;;10.93;39.95;100820.16;4858960;29;19920;-26
2023/03/13 08:22:32;;;;;;;;;;;;;;;10.81;39.39;100803.91;4841962;29;19952;-26
2023/03/13 08:24:57;;;;;;;;;;;;;;;10.98;39.12;100820.38;4858735;29;19920;-26
2023/03/13 08:27:22;;;;;;;;;;;;;;;10.82;40.08;100815.41;4858355;29;19930;-28
2023/03/13 08:29:47;;;;;;;;;;;;;;;11.16;39.58;100810.97;4858498;29;19953;-27
2023/03/13 08:32:13;;;;;;;;;;;;;;;11.49;39.45;100810.94;4858287;29;20342;-25
2023/03/13 08:34:38;;;;;;;;;;;;;;;11.21;38.04;100803.94;4858746;29;20027;-26
2023/03/13 08:37:03;;;;;;;;;;;;;;;11.37;37.73;100810.75;4858389;29;19924;-28
2023/03/13 08:39:28;;;;;;;;;;;;;;;11.61;40.08;100795.94;4858437;29;19927;-25
2023/03/13 08:41:54;;;;;;;;;;;;;;;11.83;36.22;100795.69;4858864;29;19920;-26
2023/03/13 08:44:19;;;;;;;;;;;;;;;11.83;36.64;100807.22;4858292;29;19924;-25
2023/03/13 08:46:45;;;;;;;;;;;;;;;12.00;37.46;100802.25;4858064;29;20455;-27
2023/03/13 08:49:11;;;;;;;;;;;;;;;12.06;34.73;100801.41;4858051;29;20301;-27
2023/03/13 08:51:36;;;;;;;;;;;;;;;12.03;35.03;100801.00;4841630;29;19920;-26
2023/03/13 08:54:02;;;;;;;;;;;;;;;12.44;34.07;100807.84;4841546;29;19931;-26
2023/03/13 08:56:29;;;;;;;;;;;;;;;12.48;33.80;100803.72;4858288;29;19924;-26
2023/03/13 08:58:55;;;;;;;;;;;;;;;12.31;34.15;100803.38;4841253;29;19924;-27
2023/03/13 09:01:22;;;;;;;;;;;;;;;12.34;33.66;100808.31;4857689;29;19924;-26
2023/03/13 09:03:47;;;;;;;;;;;;;;;12.36;34.06;100800.91;4841475;29;19924;-28
2023/03/13 09:06:12;;;;;;;;;;;;;;;11.82;33.77;100802.06;4857843;29;20376;-26
2023/03/13 09:08:38;;;;;;;;;;;;;;;11.78;35.31;100798.16;4857965;29;19920;-27
2023/03/13 09:11:05;;;;;;;;;;;;;;;12.43;33.10;100801.69;4857494;29;19960;-26
2023/03/13 09:13:31;;;;;;;;;;;;;;;12.82;33.71;100804.34;4857795;29;20457;-27
2023/03/13 09:15:58;;;;;;;;;;;;;;;13.11;31.28;100802.09;4840761;29;19931;-27
2023/03/13 09:18:23;;;;;;;;;;;;;;;13.36;32.50;100805.66;4857502;29;19928;-26
2023/03/13 09:20:49;;;;;;;;;;;;;;;13.48;31.79;100803.06;4857860;29;19920;-27
2023/03/13 09:23:14;;;;;;;;;;;;;;;13.75;32.08;100810.84;4856647;29;19984;-26
2023/03/13 09:25:39;;;;;;;;;;;;;;;13.86;31.09;100810.94;4857676;29;19963;-26
2023/03/13 09:28:04;;;;;;;;;;;;;;;13.48;31.58;100805.75;4857709;29;19943;-27
2023/03/13 09:30:30;;;;;;;;;;;;;;;13.33;33.43;100792.69;4857377;29;19972;-25
2023/03/13 09:32:55;;;;;;;;;;;;;;;12.78;32.21;100795.94;4857230;29;19924;-26
2023/03/13 09:35:20;;;;;;;;;;;;;;;13.03;31.88;100800.50;4857565;29;20016;-27
2023/03/13 09:37:46;;;;;;;;;;;;;;;13.24;31.08;100797.47;4857341;29;20416;-26
2023/03/13 09:40:19;;;;;;;;;;;;;;;12.92;30.95;100798.53;4857277;29;19916;-25
2023/03/13 09:42:46;;;;;;;;;;;;;;;13.16;32.46;100797.75;4857220;29;19920;-27
2023/03/13 09:45:14;;;;;;;;;;;;;;;13.16;30.79;100786.22;4857211;29;19924;-25
2023/03/13 09:47:45;;;;;;;;;;;;;;;12.83;31.09;100785.41;4857208;29;20015;-26
2023/03/13 09:50:26;;;;;;;;;;;;;;;13.12;32.09;100788.50;4857395;29;20014;-26
2023/03/13 09:52:56;;;;;;;;;;;;;;;13.46;31.19;100791.75;4857294;29;19924;-26
2023/03/13 09:55:35;;;;;;;;;;;;;;;13.55;28.83;100790.44;4857018;29;19927;-29
2023/03/13 09:58:12;;;;;;;;;;;;;;;14.00;27.24;100787.50;4840442;29;20004;-26
2023/03/13 10:00:38;;;;;;;;;;;;;;;13.98;26.60;100786.91;4844686;29;20022;-26
2023/03/13 10:03:06;;;;;;;;;;;;;;;14.30;27.01;100775.97;4875180;29;19988;-26
2023/03/13 10:05:32;;;;;;;;;;;;;;;13.92;26.63;100777.06;4875377;29;20592;-26
2023/03/13 10:08:11;;;;;;;;;;;;;;;14.17;25.76;100778.84;4875228;29;19920;-27
2023/03/13 10:10:57;;;;;;;;;;;;;;;14.40;25.88;100762.84;4875966;29;19923;-27
2023/03/13 10:13:34;;;;;;;;;;;;;;;14.35;27.26;100760.03;4874645;29;19930;-26
2023/03/13 10:16:02;;;;;;;;;;;;;;;14.17;25.07;100760.88;4875397;29;19920;-27
2023/03/13 10:18:27;;;;;;;;;;;;;;;14.78;24.56;100752.88;4874797;29;19968;-27
2023/03/13 10:20:56;;;;;;;;;;;;;;;14.90;23.69;100764.44;4875154;29;20015;-30
2023/03/13 10:23:31;;;;;;;;;;;;;;;15.18;24.48;100752.22;4875086;29;19920;-26
2023/03/13 10:25:56;;;;;;;;;;;;;;;15.40;25.36;100741.72;4875285;29;19920;-26
2023/03/13 10:28:21;;;;;;;;;;;;;;;15.16;25.28;100747.09;4875116;29;20411;-27
2023/03/13 10:30:51;;;;;;;;;;;;;;;15.48;26.70;100752.09;4874943;29;19940;-26
2023/03/13 10:33:24;;;;;;;;;;;;;;;15.36;25.44;100748.59;4858240;29;20036;-26
2023/03/13 10:36:06;;;;;;;;;;;;;;;14.79;27.30;100741.06;4858207;29;19923;-27
2023/03/13 10:38:33;;;;;;;;;;;;;;;14.30;27.46;100734.91;4858301;29;20444;-26
2023/03/13 10:41:00;;;;;;;;;;;;;;;14.68;28.53;100741.88;4857951;29;19920;-27
2023/03/13 10:43:26;;;;;;;;;;;;;;;15.06;26.26;100741.47;4857979;29;19920;-27
2023/03/13 10:45:52;;;;;;;;;;;;;;;15.15;27.42;100740.06;4875057;29;19979;-27
2023/03/13 10:48:18;;;;;;;;;;;;;;;15.42;25.09;100736.91;4875129;29;19915;-26
2023/03/13 10:50:45;;;;;;;;;;;;;;;15.36;27.04;100729.78;4858106;29;19927;-26
2023/03/13 10:53:42;;;;;;;;;;;;;;;15.49;27.29;100721.50;4857959;29;19915;-29
2023/03/13 10:56:10;;;;;;;;;;;;;;;15.49;25.42;100726.88;4833393;29;19979;-26
2023/03/13 10:58:43;;;;;;;;;;;;;;;15.31;26.25;100713.56;4874876;29;19920;-28
2023/03/13 11:01:15;;;;;;;;;;;;;;;15.34;25.62;100710.41;4874849;29;19920;-26
2023/03/13 11:03:41;;;;;;;;;;;;;;;15.47;25.85;100712.84;4874747;29;19952;-27
2023/03/13 11:06:21;;;;;;;;;;;;;;;15.45;25.54;100714.97;4840700;29;19928;-26
2023/03/13 11:08:46;;;;;;;;;;;;;;;16.14;25.63;100711.53;4842075;29;19920;-27
2023/03/13 11:11:19;;;;;;;;;;;;;;;15.93;24.22;100699.56;4872358;29;19930;-27
2023/03/13 11:13:44;;;;;;;;;;;;;;;15.89;23.48;100706.47;4874416;29;19971;-27
2023/03/13 11:16:41;;;;;;;;;;;;;;;16.79;23.92;100708.38;4874784;29;19920;-27
2023/03/13 11:19:13;;;;;;;;;;;;;;;16.69;23.90;100697.44;4832298;29;19927;-26
2023/03/13 11:21:53;;;;;;;;;;;;;;;17.46;23.14;100691.34;4875168;29;19920;-27
2023/03/13 11:24:27;;;;;;;;;;;;;;;16.64;24.42;100682.03;4857684;29;19924;-26
2023/03/13 11:26:52;;;;;;;;;;;;;;;17.08;24.16;100676.03;4857919;29;19958;-27
2023/03/13 11:29:26;;;;;;;;;;;;;;;17.21;24.94;100664.88;4874171;29;19970;-27
2023/03/13 11:31:57;;;;;;;;;;;;;;;16.55;22.93;100669.19;4874571;29;19923;-27
2023/03/13 11:34:26;;;;;;;;;;;;;;;16.97;23.43;100669.66;4857901;29;19956;-26
2023/03/13 11:37:00;;;;;;;;;;;;;;;17.27;22.40;100666.59;4874401;29;20023;-26
2023/03/13 11:39:40;;;;;;;;;;;;;;;17.59;21.64;100673.19;4857701;29;20479;-26
2023/03/13 11:42:16;;;;;;;;;;;;;;;18.23;20.67;100669.91;4873696;29;20460;-26
2023/03/13 11:44:46;;;;;;;;;;;;;;;18.87;21.74;100663.72;4874266;29;20040;-25
2023/03/13 11:47:17;;;;;;;;;;;;;;;17.38;23.66;100664.81;4876601;29;20414;-27
2023/03/13 11:49:45;;;;;;;;;;;;;;;17.20;22.48;100659.72;4877883;29;19920;-27
2023/03/13 11:52:28;;;;;;;;;;;;;;;17.14;22.36;100650.78;4877611;29;19924;-27
2023/03/13 11:55:00;;;;;;;;;;;;;;;17.10;22.24;100644.25;4878089;29;19928;-29
2023/03/13 11:57:29;;;;;;;;;;;;;;;18.16;20.95;100643.09;4878005;29;20380;-27
2023/03/13 12:00:00;;;;;;;;;;;;;;;19.04;20.98;100644.63;4860956;29;19920;-27
2023/03/13 12:02:32;;;;;;;;;;;;;;;18.25;22.44;100638.06;4877596;29;19924;-26
2023/03/13 12:05:00;;;;;;;;;;;;;;;18.56;20.99;100632.94;4860668;29;19979;-27
2023/03/13 12:07:27;;;;;;;;;;;;;;;18.37;23.16;100627.06;4877580;29;19919;-28
2023/03/13 12:10:11;;;;;;;;;;;;;;;18.75;20.71;100626.03;4877335;29;19919;-27
2023/03/13 12:12:43;;;;;;;;;;;;;;;17.34;22.88;100622.44;4860640;29;20035;-27
2023/03/13 12:15:17;;;;;;;;;;;;;;;16.62;22.84;100622.22;4860432;29;19931;-26
2023/03/13 12:18:03;;;;;;;;;;;;;;;17.43;21.73;100616.38;4877110;29;19931;-26
2023/03/13 12:20:28;;;;;;;;;;;;;;;18.00;21.93;100615.16;4838750;29;19934;-27
2023/03/13 12:22:54;;;;;;;;;;;;;;;17.36;22.66;100615.75;4877001;29;20312;-27
2023/03/13 12:25:38;;;;;;;;;;;;;;;18.20;19.54;100613.72;4877099;29;19920;-26
2023/03/13 12:28:17;;;;;;;;;;;;;;;18.46;19.57;100612.84;4877263;29;19931;-27
2023/03/13 12:30:45;;;;;;;;;;;;;;;18.34;20.12;100614.91;4860575;29;19920;-26
2023/03/13 12:33:25;;;;;;;;;;;;;;;18.23;19.47;100614.00;4876716;29;19946;-26
2023/03/13 12:36:02;;;;;;;;;;;;;;;18.17;20.34;100611.53;4860047;29;19919;-27
2023/03/13 12:38:54;;;;;;;;;;;;;;;19.03;19.46;100615.97;4877012;29;19920;-26
2023/03/13 12:41:24;;;;;;;;;;;;;;;19.59;18.08;100613.50;4872913;29;19927;-26
2023/03/13 12:43:51;;;;;;;;;;;;;;;19.26;17.53;100615.53;4859865;29;19920;-27